Huvudsida
METAR-TAF:

METAR-TAF

Flygplatser :

Chongqing Jiangbei International Airport

Chongqing, Kina

latitud: 29-31N, longitud: 106-29E, höjd: 351 m

Aktuellt väderrapport

Denna rapport gjordes för 48 minuter sedan, klockan 11:00 UTC
Vind 6 kt från nord/nordost
Temperatur 19°C
Fuktighet 100%
Tryck 1009 hPa
Sikt 10 km eller mer
Spridda moln på en höjd av 500 ft
Spridda moln på en höjd av 2000 ft
Mulet på en höjd av 4000 ft
lätt regn

METAR: ZUCK 251100Z 03003MPS 9999 -RA SCT005 SCT020 OVC040 19/19 Q1009 RERA NOSIG

Tid: 19:48 (11:48 UTC)

Väderprognos

Denna rapport gjordes för 2 timmar och 45 minuter sedan, klockan 09:03 UTC
Prognos gäller från 25 kl. 12 UTC till 26 kl. 12 UTC
Vind 8 kt från nord/nordost
Sikt: 3500 m
Få moln på en höjd av 300 ft
Spridda moln på en höjd av 1000 ft
Mulet på en höjd av 3300 ft
lätt regn, fuktdis

TAF: ZUCK 250903Z 2512/2612 03004MPS 3500 -RA BR FEW003 SCT010 OVC033 TX20/2607Z TN18/2521Z

Aktuella väderrapporter och prognoser från 4000 flygplatser (METAR- och TAF-rapporter).

De tillgängliga stationerna syns som gula och röda prickar på kartan.

För musen över prickarna för att se namnen på stationerna.

Klicka sedan för att få väderrapporter och prognoser.

För att ändra kartan: Klicka på de gröna knapparna med ett svart kors på för att zooma in; den gröna knappen med ett streck på för att zooma ut; eller på de gröna pilarna för angränsande kartor.


METAR-TAF: